createdAt,value
2019-05-06T00:01:54.138Z,99.90
2019-05-06T00:04:24.853Z,99.90
2019-05-06T00:06:55.529Z,99.90
2019-05-06T00:09:25.582Z,99.90
2019-05-06T00:11:56.657Z,99.90
2019-05-06T00:14:30.756Z,99.90
2019-05-06T00:16:59.179Z,99.90
2019-05-06T00:19:30.222Z,99.90
2019-05-06T00:22:04.789Z,99.90
2019-05-06T00:24:54.584Z,99.90
2019-05-06T00:27:35.168Z,99.90
2019-05-06T00:30:14.975Z,99.90
2019-05-06T00:32:46.273Z,99.90
2019-05-06T00:35:17.352Z,99.90
2019-05-06T00:37:53.653Z,99.90
2019-05-06T00:40:24.387Z,99.90
2019-05-06T00:43:00.454Z,99.90
2019-05-06T00:45:28.893Z,99.90
2019-05-06T00:48:00.097Z,99.90
2019-05-06T00:50:34.906Z,99.90
2019-05-06T00:53:05.067Z,99.90
2019-05-06T00:55:33.883Z,99.90
2019-05-06T00:58:08.549Z,99.90
2019-05-06T01:00:38.602Z,99.90
2019-05-06T01:03:07.302Z,99.90
2019-05-06T01:05:40.985Z,99.90
2019-05-06T01:08:09.409Z,99.90
2019-05-06T01:10:42.516Z,99.90
2019-05-06T01:13:14.566Z,99.90
2019-05-06T01:15:44.736Z,99.90
2019-05-06T01:18:19.011Z,99.90
2019-05-06T01:20:47.425Z,99.90
2019-05-06T01:23:18.929Z,99.90
2019-05-06T01:25:56.513Z,99.90
2019-05-06T01:28:27.650Z,99.90
2019-05-06T01:31:01.365Z,99.90
2019-05-06T01:33:35.048Z,99.90
2019-05-06T01:36:05.253Z,99.90
2019-05-06T01:38:35.614Z,99.90
2019-05-06T01:41:24.353Z,99.90
2019-05-06T01:43:51.381Z,99.90
2019-05-06T01:46:21.429Z,99.90
2019-05-06T01:48:53.573Z,99.90
2019-05-06T01:51:24.133Z,99.90
2019-05-06T01:53:54.391Z,99.90
2019-05-06T01:56:24.156Z,99.90
2019-05-06T01:59:00.305Z,99.90
2019-05-06T02:01:34.941Z,99.90
2019-05-06T02:04:05.188Z,99.90
2019-05-06T02:06:35.617Z,99.90
2019-05-06T02:09:10.653Z,99.90
2019-05-06T02:11:48.334Z,99.90
2019-05-06T02:14:26.104Z,99.90
2019-05-06T02:16:54.783Z,99.90
2019-05-06T02:19:29.077Z,99.90
2019-05-06T02:22:16.781Z,99.90
2019-05-06T02:24:53.620Z,99.90
2019-05-06T02:27:29.921Z,99.90
2019-05-06T02:30:18.137Z,99.90
2019-05-06T02:32:57.474Z,99.90
2019-05-06T02:35:45.705Z,99.90
2019-05-06T02:38:39.233Z,99.90
2019-05-06T02:41:03.259Z,99.90
2019-05-06T02:43:34.600Z,99.90
2019-05-06T02:46:06.234Z,99.90
2019-05-06T02:48:54.086Z,99.90
2019-05-06T02:51:24.613Z,99.90
2019-05-06T02:53:55.847Z,99.90
2019-05-06T02:56:24.325Z,99.90
2019-05-06T02:58:53.691Z,99.90
2019-05-06T03:01:25.282Z,99.90
2019-05-06T03:04:04.045Z,99.90
2019-05-06T03:06:33.803Z,99.90
2019-05-06T03:09:03.187Z,99.90
2019-05-06T03:11:35.047Z,99.90
2019-05-06T03:14:08.812Z,99.90
2019-05-06T03:16:38.879Z,99.90
2019-05-06T03:19:13.626Z,99.90
2019-05-06T03:21:44.801Z,99.90
2019-05-06T03:24:23.627Z,99.90
2019-05-06T03:26:56.984Z,99.90
2019-05-06T03:29:25.682Z,99.90
2019-05-06T03:31:59.992Z,99.90
2019-05-06T03:34:52.627Z,99.90
2019-05-06T03:37:07.289Z,99.90
2019-05-06T03:39:35.398Z,99.90
2019-05-06T03:42:04.874Z,99.90
2019-05-06T03:44:35.281Z,99.90
2019-05-06T03:47:16.901Z,99.90
2019-05-06T03:49:53.662Z,99.90
2019-05-06T03:52:26.835Z,99.90
2019-05-06T03:54:58.177Z,99.90
2019-05-06T03:57:35.433Z,99.90
2019-05-06T04:00:05.205Z,99.90
2019-05-06T04:02:40.005Z,99.90
2019-05-06T04:05:19.932Z,99.90
2019-05-06T04:07:57.239Z,99.90
2019-05-06T04:10:27.306Z,99.90
2019-05-06T04:12:56.557Z,99.90
2019-05-06T04:15:27.035Z,99.90
2019-05-06T04:18:04.068Z,99.90
2019-05-06T04:20:39.415Z,99.90
2019-05-06T04:23:24.434Z,99.90
2019-05-06T04:26:03.739Z,99.90
2019-05-06T04:28:44.534Z,99.90
2019-05-06T04:31:16.870Z,99.90
2019-05-06T04:34:08.563Z,99.90
2019-05-06T04:36:23.815Z,99.90
2019-05-06T04:38:53.923Z,99.90
2019-05-06T04:41:26.620Z,99.90
2019-05-06T04:44:02.873Z,99.90
2019-05-06T04:46:35.763Z,99.90
2019-05-06T04:49:10.919Z,99.90
2019-05-06T04:51:37.291Z,99.90
2019-05-06T04:54:08.905Z,99.90
2019-05-06T04:56:39.041Z,99.00
2019-05-06T04:59:10.266Z,98.10
2019-05-06T05:01:45.687Z,96.00
2019-05-06T05:04:30.829Z,95.80
2019-05-06T05:06:52.440Z,96.20
2019-05-06T05:09:25.714Z,97.00
2019-05-06T05:11:55.867Z,97.60
2019-05-06T05:14:34.795Z,98.50
2019-05-06T05:17:12.739Z,98.90
2019-05-06T05:19:42.893Z,99.40
2019-05-06T05:22:12.445Z,99.90
2019-05-06T05:24:43.924Z,99.90
2019-05-06T05:27:15.609Z,99.90
2019-05-06T05:29:49.506Z,99.90
2019-05-06T05:32:26.872Z,99.90
2019-05-06T05:34:57.306Z,99.90
2019-05-06T05:37:25.901Z,99.90
2019-05-06T05:39:57.394Z,99.90
2019-05-06T05:42:38.938Z,99.90
2019-05-06T05:45:12.867Z,99.90
2019-05-06T05:47:52.190Z,99.90
2019-05-06T05:50:22.853Z,99.90
2019-05-06T05:52:59.995Z,99.90
2019-05-06T05:55:28.399Z,99.90
2019-05-06T05:57:57.368Z,99.90
2019-05-06T06:00:32.477Z,99.90
2019-05-06T06:03:02.853Z,99.90
2019-05-06T06:05:37.068Z,99.90
2019-05-06T06:08:07.109Z,99.90
2019-05-06T06:10:57.845Z,99.90
2019-05-06T06:13:29.341Z,99.90
2019-05-06T06:16:17.716Z,99.90
2019-05-06T06:18:49.458Z,99.90
2019-05-06T06:21:36.492Z,99.90
2019-05-06T06:24:19.123Z,99.90
2019-05-06T06:26:47.541Z,99.90
2019-05-06T06:29:15.965Z,99.90
2019-05-06T06:31:48.689Z,99.90
2019-05-06T06:34:18.929Z,99.90
2019-05-06T06:37:18.270Z,99.90
2019-05-06T06:39:52.657Z,99.90
2019-05-06T06:42:22.220Z,99.90
2019-05-06T06:44:52.149Z,99.90
2019-05-06T06:47:26.506Z,99.90
2019-05-06T06:49:56.564Z,99.90
2019-05-06T06:52:42.131Z,99.90
2019-05-06T06:55:18.540Z,99.30
2019-05-06T06:58:05.358Z,98.80
2019-05-06T07:00:42.478Z,99.20
2019-05-06T07:03:13.799Z,98.90
2019-05-06T07:05:48.160Z,99.00
2019-05-06T07:08:33.884Z,98.70
2019-05-06T07:10:55.091Z,98.40
2019-05-06T07:13:27.818Z,98.00
2019-05-06T07:15:57.879Z,97.90
2019-05-06T07:18:26.294Z,97.30
2019-05-06T07:21:14.005Z,96.80
2019-05-06T07:23:45.012Z,96.40
2019-05-06T07:26:20.655Z,95.90
2019-05-06T07:28:54.533Z,95.30
2019-05-06T07:31:26.841Z,94.50
2019-05-06T07:33:57.212Z,92.70
2019-05-06T07:36:27.450Z,88.80
2019-05-06T07:39:03.848Z,80.70
2019-05-06T07:41:48.156Z,70.80
2019-05-06T07:44:34.953Z,58.60
2019-05-06T07:47:13.298Z,47.30
2019-05-06T07:49:43.849Z,41.20
2019-05-06T07:52:17.084Z,38.80
2019-05-06T07:54:47.194Z,35.10
2019-05-06T07:57:22.050Z,34.60
2019-05-06T07:59:52.608Z,34.40
2019-05-06T08:02:37.802Z,36.70
2019-05-06T08:05:08.896Z,38.70
2019-05-06T08:07:42.102Z,40.70
2019-05-06T08:10:10.152Z,43.40
2019-05-06T08:12:48.483Z,45.30
2019-05-06T08:15:17.605Z,48.60
2019-05-06T08:17:46.091Z,52.20
2019-05-06T08:20:15.384Z,54.60
2019-05-06T08:22:47.666Z,56.20
2019-05-06T08:25:16.078Z,57.40
2019-05-06T08:27:44.922Z,58.50
2019-05-06T08:30:14.501Z,56.50
2019-05-06T08:32:44.103Z,55.40
2019-05-06T08:35:18.878Z,57.10
2019-05-06T08:37:48.981Z,59.50
2019-05-06T08:40:17.660Z,59.00
2019-05-06T08:42:47.628Z,58.60
2019-05-06T08:45:16.292Z,60.60
2019-05-06T08:47:44.710Z,62.20
2019-05-06T08:50:35.798Z,62.10
2019-05-06T08:53:13.846Z,61.00
2019-05-06T08:55:46.873Z,58.70
2019-05-06T08:58:15.633Z,57.30
2019-05-06T09:01:04.537Z,56.80
2019-05-06T09:03:33.050Z,58.50
2019-05-06T09:06:03.136Z,57.40
2019-05-06T09:08:32.471Z,57.80
2019-05-06T09:11:07.402Z,58.30
2019-05-06T09:13:39.543Z,57.20
2019-05-06T09:16:13.010Z,59.40
2019-05-06T09:18:42.743Z,56.40
2019-05-06T09:21:12.435Z,57.80
2019-05-06T09:23:42.388Z,56.80
2019-05-06T09:26:13.094Z,56.30
2019-05-06T09:28:45.991Z,53.80
2019-05-06T09:31:34.458Z,53.90
2019-05-06T09:34:19.098Z,53.20
2019-05-06T09:37:13.686Z,51.50
2019-05-06T09:39:46.067Z,50.10
2019-05-06T09:42:18.214Z,48.50
2019-05-06T09:44:50.670Z,48.10
2019-05-06T09:47:22.974Z,48.80
2019-05-06T09:49:53.352Z,48.10
2019-05-06T09:52:23.468Z,48.60
2019-05-06T09:54:53.741Z,51.20
2019-05-06T09:57:32.882Z,48.80
2019-05-06T10:00:04.424Z,41.90
2019-05-06T10:02:32.563Z,37.90
2019-05-06T10:05:03.648Z,30.50
2019-05-06T10:07:33.762Z,28.70
2019-05-06T10:10:02.026Z,26.80
2019-05-06T10:12:32.717Z,27.00
2019-05-06T10:15:03.193Z,28.40
2019-05-06T10:17:30.742Z,28.40
2019-05-06T10:19:59.160Z,29.70
2019-05-06T10:22:27.586Z,28.80
2019-05-06T10:25:04.656Z,27.60
2019-05-06T10:27:34.558Z,27.70
2019-05-06T10:30:08.943Z,30.10
2019-05-06T10:32:48.205Z,31.50
2019-05-06T10:35:16.861Z,31.30
2019-05-06T10:37:59.993Z,29.60
2019-05-06T10:40:55.181Z,28.90
2019-05-06T10:43:19.349Z,27.40
2019-05-06T10:45:47.765Z,26.20
2019-05-06T10:48:17.898Z,27.00
2019-05-06T10:50:53.393Z,29.30
2019-05-06T10:53:23.477Z,32.20
2019-05-06T10:56:12.693Z,34.40
2019-05-06T10:58:49.324Z,36.70
2019-05-06T11:01:28.531Z,41.40
2019-05-06T11:03:56.960Z,46.20
2019-05-06T11:06:27.265Z,50.10
2019-05-06T11:09:02.719Z,53.10
2019-05-06T11:11:38.766Z,56.40
2019-05-06T11:14:12.417Z,60.10
2019-05-06T11:16:42.970Z,68.50
2019-05-06T11:19:13.270Z,76.50
2019-05-06T11:21:53.433Z,80.70
2019-05-06T11:24:26.042Z,84.50
2019-05-06T11:26:57.348Z,85.70
2019-05-06T11:29:33.949Z,84.90
2019-05-06T11:32:03.262Z,82.50
2019-05-06T11:34:42.075Z,79.30
2019-05-06T11:37:42.886Z,77.40
2019-05-06T11:39:59.066Z,76.60
2019-05-06T11:42:33.501Z,73.80
2019-05-06T11:45:03.635Z,72.70
2019-05-06T11:47:36.726Z,71.10
2019-05-06T11:50:09.070Z,69.30
2019-05-06T11:52:43.394Z,66.10
2019-05-06T11:55:27.947Z,64.10
2019-05-06T11:57:46.019Z,58.60
2019-05-06T12:00:19.647Z,56.20
2019-05-06T12:02:49.031Z,54.50
2019-05-06T12:05:19.558Z,52.00
2019-05-06T12:08:01.858Z,50.30
2019-05-06T12:10:24.438Z,49.30
2019-05-06T12:12:53.311Z,48.90
2019-05-06T12:15:22.983Z,48.20
2019-05-06T12:17:53.482Z,52.00
2019-05-06T12:20:23.508Z,54.10
2019-05-06T12:22:57.702Z,55.50
2019-05-06T12:25:26.211Z,57.90
2019-05-06T12:27:54.690Z,59.30
2019-05-06T12:30:24.794Z,62.50
2019-05-06T12:32:54.854Z,63.30
2019-05-06T12:35:23.341Z,64.40
2019-05-06T12:37:53.446Z,61.60
2019-05-06T12:40:21.870Z,57.40
2019-05-06T12:42:53.416Z,56.40
2019-05-06T12:45:36.155Z,55.90
2019-05-06T12:48:06.218Z,54.70
2019-05-06T12:50:34.651Z,54.50
2019-05-06T12:53:08.917Z,52.80
2019-05-06T12:55:37.346Z,51.80
2019-05-06T12:58:09.112Z,50.10
2019-05-06T13:00:38.006Z,48.40
2019-05-06T13:03:08.081Z,48.30
2019-05-06T13:05:36.523Z,48.80
2019-05-06T13:08:06.556Z,48.00
2019-05-06T13:10:35.414Z,49.40
2019-05-06T13:13:08.526Z,50.40
2019-05-06T13:15:43.489Z,51.50
2019-05-06T13:18:12.186Z,49.20
2019-05-06T13:20:48.226Z,48.70
2019-05-06T13:23:24.589Z,48.00
2019-05-06T13:25:52.877Z,48.30
2019-05-06T13:28:23.229Z,50.50
2019-05-06T13:30:53.145Z,51.10
2019-05-06T13:33:23.564Z,52.00
2019-05-06T13:35:52.676Z,47.60
2019-05-06T13:38:24.325Z,49.10
2019-05-06T13:40:57.906Z,49.30
2019-05-06T13:43:28.034Z,48.70
2019-05-06T13:46:15.609Z,49.80
2019-05-06T13:48:45.694Z,48.30
2019-05-06T13:51:15.754Z,49.10
2019-05-06T13:53:47.116Z,49.00
2019-05-06T13:56:15.557Z,47.30
2019-05-06T13:58:52.444Z,48.10
2019-05-06T14:01:44.109Z,48.80
2019-05-06T14:04:14.485Z,51.00
2019-05-06T14:06:45.376Z,53.70
2019-05-06T14:09:29.504Z,54.40
2019-05-06T14:11:57.712Z,56.00
2019-05-06T14:14:27.513Z,56.50
2019-05-06T14:16:55.938Z,58.50
2019-05-06T14:19:26.014Z,58.40
2019-05-06T14:21:57.618Z,56.30
2019-05-06T14:24:28.932Z,54.50
2019-05-06T14:27:12.863Z,55.80
2019-05-06T14:29:48.819Z,57.10
2019-05-06T14:32:35.113Z,56.60
2019-05-06T14:35:12.224Z,56.70
2019-05-06T14:37:43.432Z,55.80
2019-05-06T14:40:16.674Z,56.50
2019-05-06T14:42:49.157Z,56.40
2019-05-06T14:45:22.132Z,54.70
2019-05-06T14:47:52.619Z,54.60
2019-05-06T14:50:31.825Z,53.60
2019-05-06T14:52:57.546Z,53.70
2019-05-06T14:55:32.718Z,54.00
2019-05-06T14:58:05.674Z,55.50
2019-05-06T15:00:34.162Z,55.60
2019-05-06T15:03:14.597Z,55.20
2019-05-06T15:05:43.031Z,55.90
2019-05-06T15:08:14.378Z,55.60
2019-05-06T15:10:42.897Z,53.90
2019-05-06T15:13:14.066Z,54.20
2019-05-06T15:15:45.466Z,53.60
2019-05-06T15:18:13.869Z,54.50
2019-05-06T15:20:42.578Z,56.30
2019-05-06T15:23:14.183Z,55.90
2019-05-06T15:25:42.693Z,56.00
2019-05-06T15:28:13.041Z,55.90
2019-05-06T15:30:59.236Z,56.80
2019-05-06T15:33:44.603Z,55.60
2019-05-06T15:36:17.408Z,56.10
2019-05-06T15:38:48.601Z,55.40
2019-05-06T15:41:18.687Z,56.00
2019-05-06T15:43:47.092Z,54.80
2019-05-06T15:46:18.361Z,55.80
2019-05-06T15:48:52.931Z,55.40
2019-05-06T15:51:24.119Z,55.70
2019-05-06T15:54:04.677Z,54.50
2019-05-06T15:56:37.029Z,55.00
2019-05-06T15:59:05.615Z,56.30
2019-05-06T16:01:34.511Z,54.40
2019-05-06T16:04:05.819Z,55.70
2019-05-06T16:06:34.250Z,55.60
2019-05-06T16:09:04.317Z,54.70
2019-05-06T16:11:35.638Z,56.10
2019-05-06T16:14:04.619Z,56.40
2019-05-06T16:16:34.697Z,54.70
2019-05-06T16:19:09.187Z,55.60
2019-05-06T16:21:45.345Z,55.40
2019-05-06T16:24:15.467Z,56.30
2019-05-06T16:26:45.665Z,56.30
2019-05-06T16:29:16.998Z,58.40
2019-05-06T16:31:45.427Z,57.70
2019-05-06T16:34:15.150Z,56.30
2019-05-06T16:36:49.310Z,56.60
2019-05-06T16:39:22.888Z,56.20
2019-05-06T16:41:52.308Z,56.20
2019-05-06T16:44:23.550Z,56.20
2019-05-06T16:46:52.224Z,56.30
2019-05-06T16:49:22.650Z,56.60
2019-05-06T16:51:52.480Z,57.50
2019-05-06T16:54:27.447Z,57.60
2019-05-06T16:57:09.465Z,58.90
2019-05-06T16:59:42.413Z,59.20
2019-05-06T17:02:13.998Z,59.40
2019-05-06T17:04:49.945Z,59.00
2019-05-06T17:07:18.372Z,59.70
2019-05-06T17:09:49.756Z,59.00
2019-05-06T17:12:18.189Z,59.00
2019-05-06T17:14:48.146Z,60.50
2019-05-06T17:17:18.106Z,59.10
2019-05-06T17:19:48.174Z,60.40
2019-05-06T17:22:19.253Z,59.40
2019-05-06T17:24:48.706Z,61.20
2019-05-06T17:27:17.281Z,61.00
2019-05-06T17:29:47.350Z,60.40
2019-05-06T17:32:34.051Z,60.80
2019-05-06T17:35:02.800Z,61.60
2019-05-06T17:37:49.737Z,62.80
2019-05-06T17:40:20.343Z,65.10
2019-05-06T17:42:48.833Z,65.10
2019-05-06T17:45:38.602Z,66.10
2019-05-06T17:48:20.316Z,66.80
2019-05-06T17:50:52.361Z,68.50
2019-05-06T17:53:27.911Z,67.20
2019-05-06T17:55:55.474Z,68.30
2019-05-06T17:58:23.906Z,68.40
2019-05-06T18:00:54.885Z,69.20
2019-05-06T18:03:25.968Z,70.20
2019-05-06T18:05:59.753Z,70.50
2019-05-06T18:08:28.184Z,71.40
2019-05-06T18:11:04.981Z,72.60
2019-05-06T18:13:33.406Z,71.60
2019-05-06T18:16:07.541Z,72.00
2019-05-06T18:18:37.613Z,71.70
2019-05-06T18:21:12.283Z,73.00
2019-05-06T18:23:41.593Z,73.90
2019-05-06T18:26:10.010Z,74.50
2019-05-06T18:28:38.486Z,75.80
2019-05-06T18:31:11.989Z,76.50
2019-05-06T18:33:43.197Z,76.90
2019-05-06T18:36:13.021Z,78.00
2019-05-06T18:38:47.165Z,80.20
2019-05-06T18:41:15.652Z,81.70
2019-05-06T18:43:46.511Z,82.80
2019-05-06T18:46:14.930Z,84.20
2019-05-06T18:48:43.362Z,85.60
2019-05-06T18:51:12.585Z,87.60
2019-05-06T18:53:43.850Z,88.60
2019-05-06T18:56:17.024Z,89.90
2019-05-06T18:58:53.041Z,90.70
2019-05-06T19:01:23.508Z,91.10
2019-05-06T19:03:56.012Z,91.50
2019-05-06T19:06:26.315Z,92.30
2019-05-06T19:09:22.684Z,92.80
2019-05-06T19:11:51.904Z,93.30
2019-05-06T19:14:26.922Z,93.80
2019-05-06T19:16:58.358Z,94.40
2019-05-06T19:19:27.075Z,95.00
2019-05-06T19:21:58.597Z,95.30
2019-05-06T19:24:29.699Z,95.70
2019-05-06T19:26:58.109Z,96.10
2019-05-06T19:29:29.322Z,96.60
2019-05-06T19:32:03.030Z,96.50
2019-05-06T19:34:34.433Z,96.60
2019-05-06T19:37:02.524Z,96.70
2019-05-06T19:39:33.036Z,96.70
2019-05-06T19:42:02.866Z,96.70
2019-05-06T19:44:31.749Z,96.80
2019-05-06T19:47:02.869Z,96.70
2019-05-06T19:49:32.804Z,96.60
2019-05-06T19:52:07.662Z,96.50
2019-05-06T19:54:36.029Z,96.50
2019-05-06T19:57:05.605Z,96.60
2019-05-06T19:59:34.021Z,96.60
2019-05-06T20:02:02.442Z,96.70
2019-05-06T20:04:34.457Z,96.80
2019-05-06T20:07:04.517Z,96.90
2019-05-06T20:09:42.650Z,96.90
2019-05-06T20:12:15.658Z,97.10
2019-05-06T20:14:44.069Z,97.50
2019-05-06T20:17:12.947Z,97.70
2019-05-06T20:19:43.121Z,97.80
2019-05-06T20:22:14.485Z,97.90
2019-05-06T20:24:45.606Z,97.90
2019-05-06T20:27:17.097Z,98.00
2019-05-06T20:29:47.157Z,98.10
2019-05-06T20:32:18.918Z,98.30
2019-05-06T20:34:50.399Z,98.40
2019-05-06T20:37:23.400Z,98.60
2019-05-06T20:39:57.521Z,98.80
2019-05-06T20:42:32.971Z,98.90
2019-05-06T20:45:02.220Z,99.10
2019-05-06T20:47:36.640Z,99.20
2019-05-06T20:50:09.699Z,99.20
2019-05-06T20:52:38.112Z,99.20
2019-05-06T20:55:12.492Z,99.30
2019-05-06T20:57:38.755Z,99.20
2019-05-06T21:00:09.360Z,99.30
2019-05-06T21:02:39.297Z,99.40
2019-05-06T21:05:13.861Z,99.40
2019-05-06T21:07:43.387Z,99.60
2019-05-06T21:10:12.812Z,99.70
2019-05-06T21:12:42.424Z,99.60
2019-05-06T21:15:14.488Z,99.70
2019-05-06T21:17:51.977Z,99.70
2019-05-06T21:20:24.042Z,99.60
2019-05-06T21:22:52.831Z,99.70
2019-05-06T21:25:22.639Z,99.80
2019-05-06T21:27:53.185Z,99.70
2019-05-06T21:30:23.358Z,99.60
2019-05-06T21:32:55.914Z,99.70
2019-05-06T21:35:30.254Z,99.90
2019-05-06T21:38:06.064Z,99.90
2019-05-06T21:40:34.473Z,99.90
2019-05-06T21:43:04.546Z,99.90
2019-05-06T21:45:33.307Z,99.90
2019-05-06T21:48:02.925Z,99.90
2019-05-06T21:50:33.034Z,99.90
2019-05-06T21:53:02.763Z,99.90
2019-05-06T21:55:37.150Z,99.90
2019-05-06T21:58:14.092Z,99.90
2019-05-06T22:00:49.505Z,99.90
2019-05-06T22:03:33.711Z,99.90
2019-05-06T22:06:02.403Z,99.90
2019-05-06T22:08:42.224Z,99.90
2019-05-06T22:11:47.432Z,99.90
2019-05-06T22:14:17.501Z,99.90
2019-05-06T22:16:45.914Z,99.90
2019-05-06T22:19:15.979Z,99.90
2019-05-06T22:22:03.296Z,99.90
2019-05-06T22:24:48.678Z,99.90
2019-05-06T22:27:22.044Z,99.90
2019-05-06T22:29:52.238Z,99.90
2019-05-06T22:32:23.131Z,99.90
2019-05-06T22:34:55.142Z,99.90
2019-05-06T22:37:27.904Z,99.90
2019-05-06T22:39:56.326Z,99.90
2019-05-06T22:42:26.382Z,99.90
2019-05-06T22:45:01.968Z,99.90
2019-05-06T22:47:33.774Z,99.90
2019-05-06T22:50:02.341Z,99.90
2019-05-06T22:52:36.865Z,99.90
2019-05-06T22:55:08.732Z,99.90
2019-05-06T22:57:42.799Z,99.90
2019-05-06T23:00:16.009Z,99.90
2019-05-06T23:02:49.218Z,99.90
2019-05-06T23:05:17.645Z,99.90
2019-05-06T23:07:50.649Z,99.90
2019-05-06T23:10:25.506Z,99.90
2019-05-06T23:13:03.168Z,99.90
2019-05-06T23:15:34.450Z,99.90
2019-05-06T23:18:05.792Z,99.90
2019-05-06T23:20:34.214Z,99.90
2019-05-06T23:23:04.940Z,99.90
2019-05-06T23:25:43.601Z,99.90
2019-05-06T23:28:18.200Z,99.90
2019-05-06T23:30:49.582Z,99.90
2019-05-06T23:33:23.318Z,99.90
2019-05-06T23:35:57.679Z,99.90
2019-05-06T23:39:04.181Z,99.90
2019-05-06T23:42:12.213Z,99.90
2019-05-06T23:45:17.093Z,99.90
2019-05-06T23:48:22.873Z,99.90
2019-05-06T23:51:28.246Z,99.90
2019-05-06T23:54:35.801Z,99.90
2019-05-06T23:57:03.155Z,99.90
2019-05-06T23:59:32.208Z,99.90
